createdAt,value
2023-02-14T00:00:00.000Z,37.85
2023-02-14T00:15:00.000Z,36.55
2023-02-14T00:30:00.000Z,34.25
2023-02-14T00:45:00.000Z,31.42
2023-02-14T01:00:00.000Z,30.49
2023-02-14T01:15:00.000Z,29.8
2023-02-14T01:30:00.000Z,29.94
2023-02-14T01:45:00.000Z,28.78
2023-02-14T02:00:00.000Z,28.69
2023-02-14T02:15:00.000Z,27.95
2023-02-14T02:30:00.000Z,28.29
2023-02-14T02:45:00.000Z,28.31
2023-02-14T03:00:00.000Z,29.71
2023-02-14T03:15:00.000Z,37.29
2023-02-14T03:30:00.000Z,31.35
2023-02-14T03:45:00.000Z,31.11
2023-02-14T04:00:00.000Z,30.85
2023-02-14T04:15:00.000Z,29.84
2023-02-14T04:30:00.000Z,29.89
2023-02-14T04:45:00.000Z,29.99
2023-02-14T05:00:00.000Z,30.38
2023-02-14T05:15:00.000Z,30.2
2023-02-14T05:30:00.000Z,30.55
2023-02-14T05:45:00.000Z,30.06
2023-02-14T06:00:00.000Z,31.48
2023-02-14T06:15:00.000Z,31.29
2023-02-14T06:30:00.000Z,32.61
2023-02-14T06:45:00.000Z,38.02
2023-02-14T07:00:00.000Z,37.78
2023-02-14T07:15:00.000Z,33.91
2023-02-14T07:30:00.000Z,30.54
2023-02-14T07:45:00.000Z,29.01
2023-02-14T08:00:00.000Z,28.15
2023-02-14T08:15:00.000Z,28.89
2023-02-14T08:30:00.000Z,33.72
2023-02-14T08:45:00.000Z,35.39
2023-02-14T09:00:00.000Z,40.71
2023-02-14T09:15:00.000Z,41.89
2023-02-14T09:30:00.000Z,45.29
2023-02-14T09:45:00.000Z,44.24
2023-02-14T10:00:00.000Z,41.65
2023-02-14T10:15:00.000Z,35.39
2023-02-14T10:30:00.000Z,33.82
2023-02-14T10:45:00.000Z,38.39
2023-02-14T11:00:00.000Z,27.89
2023-02-14T11:15:00.000Z,26.54
2023-02-14T11:30:00.000Z,24.15
2023-02-14T11:45:00.000Z,22.55
2023-02-14T12:00:00.000Z,23.86
2023-02-14T12:15:00.000Z,23.53
2023-02-14T12:30:00.000Z,23.61
2023-02-14T12:45:00.000Z,24.25
2023-02-14T13:00:00.000Z,25.16
2023-02-14T13:15:00.000Z,27.59
2023-02-14T13:30:00.000Z,27.02
2023-02-14T13:45:00.000Z,25.82
2023-02-14T14:00:00.000Z,24.54
2023-02-14T14:15:00.000Z,23.42
2023-02-14T14:30:00.000Z,26.32
2023-02-14T14:45:00.000Z,27.85
2023-02-14T15:00:00.000Z,26.15
2023-02-14T15:15:00.000Z,27.53
2023-02-14T15:30:00.000Z,30.19
2023-02-14T15:45:00.000Z,27.94
2023-02-14T16:00:00.000Z,29.99
2023-02-14T16:15:00.000Z,29.66
2023-02-14T16:30:00.000Z,30.8
2023-02-14T16:45:00.000Z,35.12
2023-02-14T17:00:00.000Z,32.42
2023-02-14T17:15:00.000Z,30.33
2023-02-14T17:30:00.000Z,30.45
2023-02-14T17:45:00.000Z,31.36
2023-02-14T18:00:00.000Z,33.85
2023-02-14T18:15:00.000Z,33.75
2023-02-14T18:30:00.000Z,33.69
2023-02-14T18:45:00.000Z,34.78
2023-02-14T19:00:00.000Z,33.96
2023-02-14T19:15:00.000Z,35.32
2023-02-14T19:30:00.000Z,36.12
2023-02-14T19:45:00.000Z,35.69
2023-02-14T20:00:00.000Z,37.74
2023-02-14T20:15:00.000Z,40.33
2023-02-14T20:30:00.000Z,37.05
2023-02-14T20:45:00.000Z,31.07
2023-02-14T21:00:00.000Z,31.65
2023-02-14T21:15:00.000Z,30.78
2023-02-14T21:30:00.000Z,30.45
2023-02-14T21:45:00.000Z,32.29
2023-02-14T22:00:00.000Z,38.98
2023-02-14T22:15:00.000Z,39.95
2023-02-14T22:30:00.000Z,33.69
2023-02-14T22:45:00.000Z,33.86
2023-02-14T23:00:00.000Z,32.81
2023-02-14T23:15:00.000Z,32.41
2023-02-14T23:30:00.000Z,29.07
2023-02-14T23:45:00.000Z,28.33
